sensor_id;sensor_type;location;lat;lon;timestamp;P1;durP1;ratioP1;P2;durP2;ratioP2
62687;SDS011;48752;51.056;17.056;2023-02-03T00:02:01;14.25;;;5.80;;
62687;SDS011;48752;51.056;17.056;2023-02-03T00:04:26;10.95;;;5.90;;
62687;SDS011;48752;51.056;17.056;2023-02-03T00:06:52;11.60;;;5.80;;
62687;SDS011;48752;51.056;17.056;2023-02-03T00:09:17;10.45;;;6.07;;
62687;SDS011;48752;51.056;17.056;2023-02-03T00:11:46;12.98;;;6.63;;
62687;SDS011;48752;51.056;17.056;2023-02-03T00:14:11;16.10;;;6.50;;
62687;SDS011;48752;51.056;17.056;2023-02-03T00:16:41;14.77;;;6.10;;
62687;SDS011;48752;51.056;17.056;2023-02-03T00:19:07;11.27;;;5.53;;
62687;SDS011;48752;51.056;17.056;2023-02-03T00:21:33;13.07;;;6.70;;
62687;SDS011;48752;51.056;17.056;2023-02-03T00:24:01;17.27;;;6.15;;
62687;SDS011;48752;51.056;17.056;2023-02-03T00:26:26;15.10;;;7.07;;
62687;SDS011;48752;51.056;17.056;2023-02-03T00:28:59;12.15;;;5.65;;
62687;SDS011;48752;51.056;17.056;2023-02-03T00:31:30;16.63;;;7.78;;
62687;SDS011;48752;51.056;17.056;2023-02-03T00:33:56;15.20;;;7.18;;
62687;SDS011;48752;51.056;17.056;2023-02-03T00:36:28;18.15;;;7.43;;
62687;SDS011;48752;51.056;17.056;2023-02-03T00:38:55;12.45;;;7.10;;
62687;SDS011;48752;51.056;17.056;2023-02-03T00:41:22;14.57;;;6.90;;
62687;SDS011;48752;51.056;17.056;2023-02-03T00:43:47;14.18;;;6.88;;
62687;SDS011;48752;51.056;17.056;2023-02-03T00:46:13;10.68;;;5.38;;
62687;SDS011;48752;51.056;17.056;2023-02-03T00:48:39;11.80;;;6.28;;
62687;SDS011;48752;51.056;17.056;2023-02-03T00:51:06;12.30;;;6.10;;
62687;SDS011;48752;51.056;17.056;2023-02-03T00:53:32;14.52;;;6.82;;
62687;SDS011;48752;51.056;17.056;2023-02-03T00:55:59;15.88;;;6.28;;
62687;SDS011;48752;51.056;17.056;2023-02-03T00:58:25;15.05;;;6.03;;
62687;SDS011;48752;51.056;17.056;2023-02-03T01:00:50;17.77;;;7.20;;
62687;SDS011;48752;51.056;17.056;2023-02-03T01:03:19;18.00;;;7.43;;
62687;SDS011;48752;51.056;17.056;2023-02-03T01:05:45;14.25;;;7.85;;
62687;SDS011;48752;51.056;17.056;2023-02-03T01:08:10;15.75;;;8.40;;
62687;SDS011;48752;51.056;17.056;2023-02-03T01:10:37;14.27;;;8.02;;
62687;SDS011;48752;51.056;17.056;2023-02-03T01:13:09;16.58;;;8.40;;
62687;SDS011;48752;51.056;17.056;2023-02-03T01:15:35;16.77;;;8.55;;
62687;SDS011;48752;51.056;17.056;2023-02-03T01:18:01;15.20;;;7.95;;
62687;SDS011;48752;51.056;17.056;2023-02-03T01:20:35;13.32;;;7.63;;
62687;SDS011;48752;51.056;17.056;2023-02-03T01:23:01;11.68;;;6.80;;
62687;SDS011;48752;51.056;17.056;2023-02-03T01:25:28;16.73;;;7.65;;
62687;SDS011;48752;51.056;17.056;2023-02-03T01:27:53;15.45;;;7.88;;
62687;SDS011;48752;51.056;17.056;2023-02-03T01:30:19;15.00;;;7.10;;
62687;SDS011;48752;51.056;17.056;2023-02-03T01:32:46;16.75;;;7.93;;
62687;SDS011;48752;51.056;17.056;2023-02-03T01:35:12;17.02;;;7.80;;
62687;SDS011;48752;51.056;17.056;2023-02-03T01:37:41;14.98;;;8.25;;
62687;SDS011;48752;51.056;17.056;2023-02-03T01:40:08;19.35;;;8.55;;
62687;SDS011;48752;51.056;17.056;2023-02-03T01:42:35;18.48;;;8.52;;
62687;SDS011;48752;51.056;17.056;2023-02-03T01:45:09;20.83;;;8.70;;
62687;SDS011;48752;51.056;17.056;2023-02-03T01:47:58;18.85;;;7.63;;
62687;SDS011;48752;51.056;17.056;2023-02-03T01:50:29;19.23;;;9.60;;
62687;SDS011;48752;51.056;17.056;2023-02-03T01:52:59;18.98;;;8.27;;
62687;SDS011;48752;51.056;17.056;2023-02-03T01:55:35;18.83;;;9.02;;
62687;SDS011;48752;51.056;17.056;2023-02-03T01:58:21;16.38;;;7.40;;
62687;SDS011;48752;51.056;17.056;2023-02-03T02:00:50;15.90;;;7.22;;
62687;SDS011;48752;51.056;17.056;2023-02-03T02:03:20;16.15;;;7.75;;
62687;SDS011;48752;51.056;17.056;2023-02-03T02:05:49;13.67;;;6.60;;
62687;SDS011;48752;51.056;17.056;2023-02-03T02:08:19;13.90;;;7.40;;
62687;SDS011;48752;51.056;17.056;2023-02-03T02:10:49;15.93;;;7.00;;
62687;SDS011;48752;51.056;17.056;2023-02-03T02:13:23;14.50;;;7.07;;
62687;SDS011;48752;51.056;17.056;2023-02-03T02:33:17;11.68;;;6.00;;
62687;SDS011;48752;51.056;17.056;2023-02-03T02:35:54;11.68;;;6.07;;
62687;SDS011;48752;51.056;17.056;2023-02-03T02:40:52;15.07;;;6.80;;
62687;SDS011;48752;51.056;17.056;2023-02-03T02:54:31;14.95;;;6.88;;
62687;SDS011;48752;51.056;17.056;2023-02-03T02:57:10;15.48;;;7.25;;
62687;SDS011;48752;51.056;17.056;2023-02-03T02:59:37;19.63;;;6.15;;
62687;SDS011;48752;51.056;17.056;2023-02-03T03:02:04;11.02;;;6.38;;
62687;SDS011;48752;51.056;17.056;2023-02-03T03:04:31;16.40;;;7.03;;
62687;SDS011;48752;51.056;17.056;2023-02-03T03:07:07;18.42;;;7.75;;
62687;SDS011;48752;51.056;17.056;2023-02-03T03:09:49;13.32;;;6.43;;
62687;SDS011;48752;51.056;17.056;2023-02-03T03:12:21;14.10;;;6.30;;
62687;SDS011;48752;51.056;17.056;2023-02-03T03:14:52;13.15;;;6.85;;
62687;SDS011;48752;51.056;17.056;2023-02-03T03:17:31;15.70;;;6.50;;
62687;SDS011;48752;51.056;17.056;2023-02-03T03:20:09;9.38;;;5.75;;
62687;SDS011;48752;51.056;17.056;2023-02-03T03:22:41;10.82;;;5.85;;
62687;SDS011;48752;51.056;17.056;2023-02-03T03:25:16;10.65;;;5.55;;
62687;SDS011;48752;51.056;17.056;2023-02-03T03:27:48;14.30;;;7.13;;
62687;SDS011;48752;51.056;17.056;2023-02-03T03:30:25;12.80;;;6.60;;
62687;SDS011;48752;51.056;17.056;2023-02-03T03:32:54;14.27;;;6.82;;
62687;SDS011;48752;51.056;17.056;2023-02-03T03:35:21;13.63;;;7.15;;
62687;SDS011;48752;51.056;17.056;2023-02-03T03:37:54;13.45;;;6.50;;
62687;SDS011;48752;51.056;17.056;2023-02-03T03:40:29;12.68;;;6.47;;
62687;SDS011;48752;51.056;17.056;2023-02-03T03:42:59;13.98;;;6.75;;
62687;SDS011;48752;51.056;17.056;2023-02-03T03:45:43;13.07;;;6.32;;
62687;SDS011;48752;51.056;17.056;2023-02-03T03:48:31;14.20;;;6.20;;
62687;SDS011;48752;51.056;17.056;2023-02-03T03:53:45;12.25;;;5.88;;
62687;SDS011;48752;51.056;17.056;2023-02-03T03:56:16;18.42;;;6.63;;
62687;SDS011;48752;51.056;17.056;2023-02-03T03:58:53;15.18;;;6.43;;
62687;SDS011;48752;51.056;17.056;2023-02-03T04:01:20;14.05;;;6.63;;
62687;SDS011;48752;51.056;17.056;2023-02-03T04:03:59;13.25;;;6.10;;
62687;SDS011;48752;51.056;17.056;2023-02-03T04:06:39;10.90;;;6.47;;
62687;SDS011;48752;51.056;17.056;2023-02-03T04:09:06;17.35;;;6.82;;
62687;SDS011;48752;51.056;17.056;2023-02-03T04:11:40;10.90;;;5.68;;
62687;SDS011;48752;51.056;17.056;2023-02-03T04:14:25;13.70;;;6.20;;
62687;SDS011;48752;51.056;17.056;2023-02-03T04:16:50;12.60;;;5.18;;
62687;SDS011;48752;51.056;17.056;2023-02-03T04:19:17;12.25;;;6.00;;
62687;SDS011;48752;51.056;17.056;2023-02-03T04:21:42;12.75;;;6.25;;
62687;SDS011;48752;51.056;17.056;2023-02-03T04:24:09;11.70;;;6.60;;
62687;SDS011;48752;51.056;17.056;2023-02-03T04:26:36;13.88;;;7.53;;
62687;SDS011;48752;51.056;17.056;2023-02-03T04:29:03;11.43;;;5.55;;
62687;SDS011;48752;51.056;17.056;2023-02-03T04:31:28;11.63;;;5.80;;
62687;SDS011;48752;51.056;17.056;2023-02-03T04:33:54;10.23;;;5.13;;
62687;SDS011;48752;51.056;17.056;2023-02-03T04:36:19;10.32;;;4.97;;
62687;SDS011;48752;51.056;17.056;2023-02-03T04:38:47;9.10;;;4.18;;
62687;SDS011;48752;51.056;17.056;2023-02-03T04:41:14;7.20;;;4.28;;
62687;SDS011;48752;51.056;17.056;2023-02-03T04:43:40;10.13;;;4.43;;
62687;SDS011;48752;51.056;17.056;2023-02-03T04:46:07;8.38;;;4.28;;
62687;SDS011;48752;51.056;17.056;2023-02-03T04:48:34;9.85;;;4.82;;
62687;SDS011;48752;51.056;17.056;2023-02-03T04:51:01;10.65;;;4.53;;
62687;SDS011;48752;51.056;17.056;2023-02-03T04:53:29;10.30;;;4.65;;
62687;SDS011;48752;51.056;17.056;2023-02-03T04:55:55;14.63;;;5.38;;
62687;SDS011;48752;51.056;17.056;2023-02-03T04:58:22;12.15;;;5.57;;
62687;SDS011;48752;51.056;17.056;2023-02-03T05:00:48;11.93;;;4.65;;
62687;SDS011;48752;51.056;17.056;2023-02-03T05:03:15;11.18;;;4.50;;
62687;SDS011;48752;51.056;17.056;2023-02-03T05:05:41;9.15;;;4.82;;
62687;SDS011;48752;51.056;17.056;2023-02-03T05:08:06;12.23;;;5.55;;
62687;SDS011;48752;51.056;17.056;2023-02-03T05:10:33;13.30;;;5.25;;
62687;SDS011;48752;51.056;17.056;2023-02-03T05:12:58;13.82;;;5.38;;
62687;SDS011;48752;51.056;17.056;2023-02-03T05:15:23;7.70;;;4.65;;
62687;SDS011;48752;51.056;17.056;2023-02-03T05:17:52;13.70;;;5.88;;
62687;SDS011;48752;51.056;17.056;2023-02-03T05:20:18;10.60;;;5.75;;
62687;SDS011;48752;51.056;17.056;2023-02-03T05:22:44;13.10;;;5.45;;
62687;SDS011;48752;51.056;17.056;2023-02-03T05:25:09;14.35;;;6.07;;
62687;SDS011;48752;51.056;17.056;2023-02-03T05:27:36;11.95;;;4.97;;
62687;SDS011;48752;51.056;17.056;2023-02-03T05:30:03;8.18;;;5.53;;
62687;SDS011;48752;51.056;17.056;2023-02-03T05:32:38;10.55;;;5.82;;
62687;SDS011;48752;51.056;17.056;2023-02-03T05:35:05;9.85;;;5.60;;
62687;SDS011;48752;51.056;17.056;2023-02-03T05:37:30;6.90;;;5.28;;
62687;SDS011;48752;51.056;17.056;2023-02-03T05:39:57;13.95;;;5.22;;
62687;SDS011;48752;51.056;17.056;2023-02-03T05:42:48;9.52;;;5.13;;
62687;SDS011;48752;51.056;17.056;2023-02-03T05:45:15;16.40;;;5.28;;
62687;SDS011;48752;51.056;17.056;2023-02-03T05:47:43;11.30;;;5.50;;
62687;SDS011;48752;51.056;17.056;2023-02-03T05:50:10;13.50;;;5.20;;
62687;SDS011;48752;51.056;17.056;2023-02-03T05:52:36;12.27;;;5.85;;
62687;SDS011;48752;51.056;17.056;2023-02-03T05:55:03;11.70;;;5.38;;
62687;SDS011;48752;51.056;17.056;2023-02-03T05:57:30;11.07;;;4.75;;
62687;SDS011;48752;51.056;17.056;2023-02-03T05:59:55;8.63;;;5.15;;
62687;SDS011;48752;51.056;17.056;2023-02-03T06:02:20;8.60;;;4.93;;
62687;SDS011;48752;51.056;17.056;2023-02-03T06:04:46;11.63;;;5.78;;
62687;SDS011;48752;51.056;17.056;2023-02-03T06:07:16;12.13;;;5.57;;
62687;SDS011;48752;51.056;17.056;2023-02-03T06:09:43;11.10;;;5.50;;
62687;SDS011;48752;51.056;17.056;2023-02-03T06:12:10;9.25;;;6.10;;
62687;SDS011;48752;51.056;17.056;2023-02-03T06:14:41;14.32;;;5.85;;
62687;SDS011;48752;51.056;17.056;2023-02-03T06:17:09;14.05;;;5.70;;
62687;SDS011;48752;51.056;17.056;2023-02-03T06:19:36;11.75;;;5.35;;
62687;SDS011;48752;51.056;17.056;2023-02-03T06:22:02;15.82;;;5.85;;
62687;SDS011;48752;51.056;17.056;2023-02-03T06:24:29;13.82;;;6.55;;
62687;SDS011;48752;51.056;17.056;2023-02-03T06:26:54;14.23;;;7.32;;
62687;SDS011;48752;51.056;17.056;2023-02-03T06:29:20;15.70;;;6.68;;
62687;SDS011;48752;51.056;17.056;2023-02-03T06:31:45;16.95;;;7.00;;
62687;SDS011;48752;51.056;17.056;2023-02-03T06:34:10;20.00;;;8.18;;
62687;SDS011;48752;51.056;17.056;2023-02-03T06:36:36;18.05;;;7.10;;
62687;SDS011;48752;51.056;17.056;2023-02-03T06:39:01;17.08;;;7.97;;
62687;SDS011;48752;51.056;17.056;2023-02-03T06:41:26;16.95;;;6.90;;
62687;SDS011;48752;51.056;17.056;2023-02-03T06:43:54;18.55;;;8.20;;
62687;SDS011;48752;51.056;17.056;2023-02-03T06:46:20;17.58;;;8.50;;
62687;SDS011;48752;51.056;17.056;2023-02-03T06:48:45;15.23;;;7.65;;
62687;SDS011;48752;51.056;17.056;2023-02-03T06:51:11;17.08;;;7.70;;
62687;SDS011;48752;51.056;17.056;2023-02-03T06:53:36;18.35;;;8.52;;
62687;SDS011;48752;51.056;17.056;2023-02-03T06:56:01;15.20;;;6.75;;
62687;SDS011;48752;51.056;17.056;2023-02-03T06:58:27;12.32;;;7.47;;
62687;SDS011;48752;51.056;17.056;2023-02-03T07:00:56;15.50;;;7.55;;
62687;SDS011;48752;51.056;17.056;2023-02-03T07:03:21;14.13;;;8.55;;
62687;SDS011;48752;51.056;17.056;2023-02-03T07:05:47;16.52;;;8.55;;
62687;SDS011;48752;51.056;17.056;2023-02-03T07:08:12;17.33;;;7.47;;
62687;SDS011;48752;51.056;17.056;2023-02-03T07:10:38;18.13;;;7.53;;
62687;SDS011;48752;51.056;17.056;2023-02-03T07:13:04;16.23;;;7.80;;
62687;SDS011;48752;51.056;17.056;2023-02-03T07:15:30;12.85;;;6.22;;
62687;SDS011;48752;51.056;17.056;2023-02-03T07:17:55;13.38;;;6.18;;
62687;SDS011;48752;51.056;17.056;2023-02-03T07:20:21;13.40;;;7.20;;
62687;SDS011;48752;51.056;17.056;2023-02-03T07:22:54;16.58;;;6.40;;
62687;SDS011;48752;51.056;17.056;2023-02-03T07:25:20;18.17;;;7.68;;
62687;SDS011;48752;51.056;17.056;2023-02-03T07:27:46;15.30;;;6.55;;
62687;SDS011;48752;51.056;17.056;2023-02-03T07:30:12;13.45;;;5.88;;
62687;SDS011;48752;51.056;17.056;2023-02-03T07:32:37;12.40;;;6.28;;
62687;SDS011;48752;51.056;17.056;2023-02-03T07:35:03;13.15;;;6.68;;
62687;SDS011;48752;51.056;17.056;2023-02-03T07:37:29;10.68;;;6.18;;
62687;SDS011;48752;51.056;17.056;2023-02-03T07:39:54;14.68;;;7.47;;
62687;SDS011;48752;51.056;17.056;2023-02-03T07:42:19;17.67;;;7.78;;
62687;SDS011;48752;51.056;17.056;2023-02-03T07:44:45;15.05;;;7.10;;
62687;SDS011;48752;51.056;17.056;2023-02-03T07:47:10;16.50;;;6.88;;
62687;SDS011;48752;51.056;17.056;2023-02-03T07:49:35;19.65;;;7.75;;
62687;SDS011;48752;51.056;17.056;2023-02-03T07:52:01;14.43;;;7.93;;
62687;SDS011;48752;51.056;17.056;2023-02-03T07:54:26;16.17;;;7.82;;
62687;SDS011;48752;51.056;17.056;2023-02-03T07:56:52;16.88;;;8.63;;
62687;SDS011;48752;51.056;17.056;2023-02-03T07:59:18;13.93;;;7.10;;
62687;SDS011;48752;51.056;17.056;2023-02-03T08:01:43;18.95;;;9.43;;
62687;SDS011;48752;51.056;17.056;2023-02-03T08:04:09;19.83;;;10.27;;
62687;SDS011;48752;51.056;17.056;2023-02-03T08:06:36;14.70;;;7.85;;
62687;SDS011;48752;51.056;17.056;2023-02-03T08:09:02;15.32;;;8.20;;
62687;SDS011;48752;51.056;17.056;2023-02-03T08:11:27;14.65;;;7.82;;
62687;SDS011;48752;51.056;17.056;2023-02-03T08:13:53;15.00;;;8.40;;
62687;SDS011;48752;51.056;17.056;2023-02-03T08:16:18;13.30;;;7.78;;
62687;SDS011;48752;51.056;17.056;2023-02-03T08:18:43;13.95;;;7.68;;
62687;SDS011;48752;51.056;17.056;2023-02-03T08:21:09;14.88;;;7.22;;
62687;SDS011;48752;51.056;17.056;2023-02-03T08:23:35;14.85;;;7.63;;
62687;SDS011;48752;51.056;17.056;2023-02-03T08:26:00;19.67;;;8.65;;
62687;SDS011;48752;51.056;17.056;2023-02-03T08:28:26;16.92;;;8.27;;
62687;SDS011;48752;51.056;17.056;2023-02-03T08:30:51;16.83;;;7.75;;
62687;SDS011;48752;51.056;17.056;2023-02-03T08:33:17;15.65;;;7.70;;
62687;SDS011;48752;51.056;17.056;2023-02-03T08:35:46;12.00;;;7.25;;
62687;SDS011;48752;51.056;17.056;2023-02-03T08:38:12;11.43;;;7.03;;
62687;SDS011;48752;51.056;17.056;2023-02-03T08:40:38;12.48;;;6.68;;
62687;SDS011;48752;51.056;17.056;2023-02-03T08:43:03;15.90;;;7.15;;
62687;SDS011;48752;51.056;17.056;2023-02-03T08:45:29;12.50;;;7.25;;
62687;SDS011;48752;51.056;17.056;2023-02-03T08:47:54;13.90;;;7.05;;
62687;SDS011;48752;51.056;17.056;2023-02-03T08:50:19;14.63;;;8.05;;
62687;SDS011;48752;51.056;17.056;2023-02-03T08:52:45;15.80;;;8.55;;
62687;SDS011;48752;51.056;17.056;2023-02-03T08:55:10;17.70;;;8.20;;
62687;SDS011;48752;51.056;17.056;2023-02-03T08:57:36;18.33;;;8.45;;
62687;SDS011;48752;51.056;17.056;2023-02-03T09:00:03;14.00;;;7.13;;
62687;SDS011;48752;51.056;17.056;2023-02-03T09:02:30;15.80;;;8.10;;
62687;SDS011;48752;51.056;17.056;2023-02-03T09:04:55;12.70;;;7.35;;
62687;SDS011;48752;51.056;17.056;2023-02-03T09:07:21;17.73;;;7.43;;
62687;SDS011;48752;51.056;17.056;2023-02-03T09:09:47;15.02;;;7.35;;
62687;SDS011;48752;51.056;17.056;2023-02-03T09:12:14;13.23;;;6.50;;
62687;SDS011;48752;51.056;17.056;2023-02-03T09:14:47;15.68;;;7.15;;
62687;SDS011;48752;51.056;17.056;2023-02-03T09:17:14;12.88;;;6.38;;
62687;SDS011;48752;51.056;17.056;2023-02-03T09:19:40;9.93;;;5.80;;
62687;SDS011;48752;51.056;17.056;2023-02-03T09:22:06;10.85;;;4.95;;
62687;SDS011;48752;51.056;17.056;2023-02-03T09:24:31;10.07;;;4.78;;
62687;SDS011;48752;51.056;17.056;2023-02-03T09:26:57;11.70;;;4.68;;
62687;SDS011;48752;51.056;17.056;2023-02-03T09:29:26;8.75;;;5.43;;
62687;SDS011;48752;51.056;17.056;2023-02-03T09:31:53;12.88;;;5.50;;
62687;SDS011;48752;51.056;17.056;2023-02-03T09:34:18;8.70;;;4.45;;
62687;SDS011;48752;51.056;17.056;2023-02-03T09:36:45;15.45;;;5.22;;
62687;SDS011;48752;51.056;17.056;2023-02-03T09:39:11;9.95;;;5.15;;
62687;SDS011;48752;51.056;17.056;2023-02-03T09:44:35;9.45;;;5.60;;
62687;SDS011;48752;51.056;17.056;2023-02-03T09:47:21;23.08;;;6.57;;
62687;SDS011;48752;51.056;17.056;2023-02-03T09:50:05;21.92;;;8.77;;
62687;SDS011;48752;51.056;17.056;2023-02-03T09:52:39;18.67;;;6.68;;
62687;SDS011;48752;51.056;17.056;2023-02-03T10:00:54;16.40;;;6.93;;
62687;SDS011;48752;51.056;17.056;2023-02-03T10:06:31;18.30;;;6.18;;
62687;SDS011;48752;51.056;17.056;2023-02-03T10:17:15;13.65;;;5.32;;
62687;SDS011;48752;51.056;17.056;2023-02-03T10:19:46;11.93;;;5.88;;
62687;SDS011;48752;51.056;17.056;2023-02-03T10:22:15;16.13;;;6.03;;
62687;SDS011;48752;51.056;17.056;2023-02-03T10:24:55;11.20;;;5.30;;
62687;SDS011;48752;51.056;17.056;2023-02-03T10:27:29;15.65;;;8.25;;
62687;SDS011;48752;51.056;17.056;2023-02-03T10:30:19;10.90;;;6.53;;
62687;SDS011;48752;51.056;17.056;2023-02-03T10:32:53;13.80;;;6.55;;
62687;SDS011;48752;51.056;17.056;2023-02-03T10:35:25;14.30;;;6.70;;
62687;SDS011;48752;51.056;17.056;2023-02-03T10:38:08;10.63;;;6.95;;
62687;SDS011;48752;51.056;17.056;2023-02-03T10:40:40;17.33;;;7.72;;
62687;SDS011;48752;51.056;17.056;2023-02-03T10:43:07;14.90;;;8.25;;
62687;SDS011;48752;51.056;17.056;2023-02-03T10:45:52;17.15;;;6.80;;
62687;SDS011;48752;51.056;17.056;2023-02-03T10:48:17;14.43;;;8.48;;
62687;SDS011;48752;51.056;17.056;2023-02-03T10:50:45;14.55;;;6.70;;
62687;SDS011;48752;51.056;17.056;2023-02-03T10:55:58;14.38;;;7.45;;
62687;SDS011;48752;51.056;17.056;2023-02-03T10:58:31;18.50;;;7.90;;
62687;SDS011;48752;51.056;17.056;2023-02-03T11:01:05;12.73;;;6.35;;
62687;SDS011;48752;51.056;17.056;2023-02-03T11:03:31;10.82;;;6.28;;
62687;SDS011;48752;51.056;17.056;2023-02-03T11:06:05;22.00;;;7.55;;
62687;SDS011;48752;51.056;17.056;2023-02-03T11:08:33;12.15;;;6.50;;
62687;SDS011;48752;51.056;17.056;2023-02-03T11:11:04;13.45;;;6.13;;
62687;SDS011;48752;51.056;17.056;2023-02-03T11:13:34;14.93;;;7.03;;
62687;SDS011;48752;51.056;17.056;2023-02-03T11:16:01;12.00;;;6.07;;
62687;SDS011;48752;51.056;17.056;2023-02-03T11:23:48;13.23;;;6.00;;
62687;SDS011;48752;51.056;17.056;2023-02-03T11:26:14;16.17;;;6.07;;
62687;SDS011;48752;51.056;17.056;2023-02-03T11:28:43;16.02;;;6.47;;
62687;SDS011;48752;51.056;17.056;2023-02-03T11:31:15;10.55;;;5.97;;
62687;SDS011;48752;51.056;17.056;2023-02-03T11:33:53;9.50;;;5.65;;
62687;SDS011;48752;51.056;17.056;2023-02-03T11:36:21;9.80;;;4.90;;
62687;SDS011;48752;51.056;17.056;2023-02-03T11:38:46;9.05;;;5.53;;
62687;SDS011;48752;51.056;17.056;2023-02-03T11:41:16;8.30;;;4.13;;
62687;SDS011;48752;51.056;17.056;2023-02-03T11:43:45;7.43;;;3.97;;
62687;SDS011;48752;51.056;17.056;2023-02-03T11:46:11;11.05;;;4.70;;
62687;SDS011;48752;51.056;17.056;2023-02-03T11:48:38;9.18;;;3.78;;
62687;SDS011;48752;51.056;17.056;2023-02-03T11:51:21;8.35;;;3.10;;
62687;SDS011;48752;51.056;17.056;2023-02-03T12:10:27;6.32;;;2.63;;
62687;SDS011;48752;51.056;17.056;2023-02-03T12:28:44;4.20;;;2.58;;
62687;SDS011;48752;51.056;17.056;2023-02-03T12:33:59;6.10;;;2.80;;
62687;SDS011;48752;51.056;17.056;2023-02-03T12:36:47;3.78;;;2.60;;
62687;SDS011;48752;51.056;17.056;2023-02-03T12:39:24;4.43;;;2.25;;
62687;SDS011;48752;51.056;17.056;2023-02-03T12:42:03;4.00;;;2.03;;
62687;SDS011;48752;51.056;17.056;2023-02-03T12:44:34;3.00;;;2.00;;
62687;SDS011;48752;51.056;17.056;2023-02-03T12:50:03;7.32;;;3.00;;
62687;SDS011;48752;51.056;17.056;2023-02-03T12:52:41;3.00;;;1.90;;
62687;SDS011;48752;51.056;17.056;2023-02-03T12:57:54;3.13;;;2.00;;
62687;SDS011;48752;51.056;17.056;2023-02-03T13:08:36;4.05;;;2.00;;
62687;SDS011;48752;51.056;17.056;2023-02-03T13:11:08;3.10;;;1.75;;
62687;SDS011;48752;51.056;17.056;2023-02-03T13:16:38;2.25;;;1.70;;
62687;SDS011;48752;51.056;17.056;2023-02-03T13:19:12;2.65;;;1.83;;
62687;SDS011;48752;51.056;17.056;2023-02-03T13:21:40;4.35;;;2.25;;
62687;SDS011;48752;51.056;17.056;2023-02-03T13:24:06;3.65;;;1.60;;
62687;SDS011;48752;51.056;17.056;2023-02-03T13:42:32;2.30;;;1.83;;
62687;SDS011;48752;51.056;17.056;2023-02-03T13:47:39;1.98;;;1.77;;
62687;SDS011;48752;51.056;17.056;2023-02-03T13:50:31;2.28;;;1.40;;
62687;SDS011;48752;51.056;17.056;2023-02-03T13:55:35;5.28;;;1.50;;
62687;SDS011;48752;51.056;17.056;2023-02-03T13:58:05;3.35;;;1.67;;
62687;SDS011;48752;51.056;17.056;2023-02-03T14:03:14;6.32;;;1.77;;
62687;SDS011;48752;51.056;17.056;2023-02-03T14:05:45;2.53;;;1.38;;
62687;SDS011;48752;51.056;17.056;2023-02-03T14:13:52;5.32;;;2.47;;
62687;SDS011;48752;51.056;17.056;2023-02-03T14:16:22;3.58;;;2.22;;
62687;SDS011;48752;51.056;17.056;2023-02-03T14:18:49;2.00;;;1.75;;
62687;SDS011;48752;51.056;17.056;2023-02-03T14:21:22;3.92;;;2.58;;
62687;SDS011;48752;51.056;17.056;2023-02-03T14:23:55;3.42;;;1.60;;
62687;SDS011;48752;51.056;17.056;2023-02-03T14:29:21;2.40;;;1.70;;
62687;SDS011;48752;51.056;17.056;2023-02-03T14:34:36;3.35;;;1.98;;
62687;SDS011;48752;51.056;17.056;2023-02-03T14:53:57;6.15;;;1.63;;
62687;SDS011;48752;51.056;17.056;2023-02-03T14:59:53;10.85;;;2.80;;
62687;SDS011;48752;51.056;17.056;2023-02-03T15:02:26;7.53;;;2.97;;
62687;SDS011;48752;51.056;17.056;2023-02-03T15:07:52;14.75;;;4.13;;
62687;SDS011;48752;51.056;17.056;2023-02-03T15:10:19;8.43;;;2.38;;
62687;SDS011;48752;51.056;17.056;2023-02-03T15:12:56;4.50;;;2.15;;
62687;SDS011;48752;51.056;17.056;2023-02-03T15:17:49;9.65;;;2.55;;
62687;SDS011;48752;51.056;17.056;2023-02-03T15:20:54;7.53;;;2.15;;
62687;SDS011;48752;51.056;17.056;2023-02-03T15:25:56;12.77;;;3.05;;
62687;SDS011;48752;51.056;17.056;2023-02-03T15:28:26;8.35;;;2.80;;
62687;SDS011;48752;51.056;17.056;2023-02-03T15:33:45;8.60;;;2.53;;
62687;SDS011;48752;51.056;17.056;2023-02-03T15:36:14;10.85;;;4.43;;
62687;SDS011;48752;51.056;17.056;2023-02-03T15:38:52;9.10;;;3.00;;
62687;SDS011;48752;51.056;17.056;2023-02-03T15:41:24;12.05;;;3.05;;
62687;SDS011;48752;51.056;17.056;2023-02-03T15:44:09;14.40;;;2.72;;
62687;SDS011;48752;51.056;17.056;2023-02-03T15:46:50;11.98;;;3.33;;
62687;SDS011;48752;51.056;17.056;2023-02-03T15:49:21;17.55;;;3.92;;
62687;SDS011;48752;51.056;17.056;2023-02-03T15:52:10;12.65;;;3.38;;
62687;SDS011;48752;51.056;17.056;2023-02-03T15:57:31;12.32;;;3.53;;
62687;SDS011;48752;51.056;17.056;2023-02-03T16:00:00;8.60;;;3.22;;
62687;SDS011;48752;51.056;17.056;2023-02-03T16:02:52;10.65;;;4.13;;
62687;SDS011;48752;51.056;17.056;2023-02-03T16:05:40;12.35;;;3.08;;
62687;SDS011;48752;51.056;17.056;2023-02-03T16:08:33;15.68;;;4.20;;
62687;SDS011;48752;51.056;17.056;2023-02-03T16:13:56;11.32;;;3.28;;
62687;SDS011;48752;51.056;17.056;2023-02-03T16:16:35;13.02;;;4.43;;
62687;SDS011;48752;51.056;17.056;2023-02-03T16:19:19;15.70;;;3.22;;
62687;SDS011;48752;51.056;17.056;2023-02-03T16:32:35;14.30;;;2.33;;
62687;SDS011;48752;51.056;17.056;2023-02-03T16:35:19;10.93;;;2.75;;
62687;SDS011;48752;51.056;17.056;2023-02-03T16:38:09;13.57;;;3.72;;
62687;SDS011;48752;51.056;17.056;2023-02-03T16:40:59;8.25;;;2.67;;
62687;SDS011;48752;51.056;17.056;2023-02-03T16:43:57;11.02;;;2.08;;
62687;SDS011;48752;51.056;17.056;2023-02-03T16:46:42;6.90;;;2.45;;
62687;SDS011;48752;51.056;17.056;2023-02-03T16:49:26;8.70;;;3.00;;
62687;SDS011;48752;51.056;17.056;2023-02-03T16:52:11;14.63;;;2.90;;
62687;SDS011;48752;51.056;17.056;2023-02-03T16:54:36;10.75;;;2.67;;
62687;SDS011;48752;51.056;17.056;2023-02-03T16:57:04;9.02;;;2.60;;
62687;SDS011;48752;51.056;17.056;2023-02-03T16:59:29;10.32;;;2.42;;
62687;SDS011;48752;51.056;17.056;2023-02-03T17:01:59;16.80;;;3.22;;
62687;SDS011;48752;51.056;17.056;2023-02-03T17:04:35;11.85;;;3.80;;
62687;SDS011;48752;51.056;17.056;2023-02-03T17:07:00;15.35;;;3.95;;
62687;SDS011;48752;51.056;17.056;2023-02-03T17:09:30;12.20;;;3.78;;
62687;SDS011;48752;51.056;17.056;2023-02-03T17:12:01;18.35;;;3.38;;
62687;SDS011;48752;51.056;17.056;2023-02-03T17:14:28;15.07;;;4.00;;
62687;SDS011;48752;51.056;17.056;2023-02-03T17:16:56;15.75;;;3.15;;
